sensor_id;sensor_type;location;lat;lon;timestamp;P1;durP1;ratioP1;P2;durP2;ratioP2
42096;SDS011;27754;45.414;11.084;2023-12-07T00:00:32;30.73;;;18.88;;
42096;SDS011;27754;45.414;11.084;2023-12-07T00:03:00;24.52;;;16.48;;
42096;SDS011;27754;45.414;11.084;2023-12-07T00:05:27;25.75;;;16.45;;
42096;SDS011;27754;45.414;11.084;2023-12-07T00:07:54;26.73;;;16.75;;
42096;SDS011;27754;45.414;11.084;2023-12-07T00:10:21;25.27;;;16.77;;
42096;SDS011;27754;45.414;11.084;2023-12-07T00:12:48;25.02;;;16.38;;
42096;SDS011;27754;45.414;11.084;2023-12-07T00:15:15;22.90;;;16.10;;
42096;SDS011;27754;45.414;11.084;2023-12-07T00:17:42;23.35;;;15.35;;
42096;SDS011;27754;45.414;11.084;2023-12-07T00:20:09;24.63;;;16.13;;
42096;SDS011;27754;45.414;11.084;2023-12-07T00:22:37;22.50;;;16.00;;
42096;SDS011;27754;45.414;11.084;2023-12-07T00:25:04;25.08;;;16.80;;
42096;SDS011;27754;45.414;11.084;2023-12-07T00:27:31;26.15;;;16.73;;
42096;SDS011;27754;45.414;11.084;2023-12-07T00:29:58;22.35;;;15.73;;
42096;SDS011;27754;45.414;11.084;2023-12-07T00:32:25;24.25;;;15.65;;
42096;SDS011;27754;45.414;11.084;2023-12-07T00:34:53;25.52;;;16.73;;
42096;SDS011;27754;45.414;11.084;2023-12-07T00:37:20;25.15;;;16.08;;
42096;SDS011;27754;45.414;11.084;2023-12-07T00:39:47;21.35;;;14.88;;
42096;SDS011;27754;45.414;11.084;2023-12-07T00:42:14;24.77;;;15.63;;
42096;SDS011;27754;45.414;11.084;2023-12-07T00:44:41;26.40;;;17.17;;
42096;SDS011;27754;45.414;11.084;2023-12-07T00:47:08;23.88;;;15.60;;
42096;SDS011;27754;45.414;11.084;2023-12-07T00:49:39;24.85;;;17.10;;
42096;SDS011;27754;45.414;11.084;2023-12-07T00:52:07;24.20;;;17.45;;
42096;SDS011;27754;45.414;11.084;2023-12-07T00:54:34;24.42;;;14.63;;
42096;SDS011;27754;45.414;11.084;2023-12-07T00:57:01;25.85;;;15.60;;
42096;SDS011;27754;45.414;11.084;2023-12-07T00:59:28;27.58;;;15.57;;
42096;SDS011;27754;45.414;11.084;2023-12-07T01:02:03;21.77;;;15.00;;
42096;SDS011;27754;45.414;11.084;2023-12-07T01:04:31;21.98;;;15.30;;
42096;SDS011;27754;45.414;11.084;2023-12-07T01:06:59;24.75;;;13.85;;
42096;SDS011;27754;45.414;11.084;2023-12-07T01:09:27;25.15;;;16.15;;
42096;SDS011;27754;45.414;11.084;2023-12-07T01:11:54;39.78;;;20.00;;
42096;SDS011;27754;45.414;11.084;2023-12-07T01:14:21;87.93;;;39.88;;
42096;SDS011;27754;45.414;11.084;2023-12-07T01:16:48;160.40;;;65.88;;
42096;SDS011;27754;45.414;11.084;2023-12-07T01:19:15;114.05;;;53.75;;
42096;SDS011;27754;45.414;11.084;2023-12-07T01:21:42;62.83;;;33.13;;
42096;SDS011;27754;45.414;11.084;2023-12-07T01:24:09;50.20;;;26.20;;
42096;SDS011;27754;45.414;11.084;2023-12-07T01:26:41;39.60;;;24.13;;
42096;SDS011;27754;45.414;11.084;2023-12-07T01:29:09;42.28;;;22.85;;
42096;SDS011;27754;45.414;11.084;2023-12-07T01:31:36;32.72;;;19.65;;
42096;SDS011;27754;45.414;11.084;2023-12-07T01:34:03;34.53;;;20.48;;
42096;SDS011;27754;45.414;11.084;2023-12-07T01:36:30;35.72;;;21.13;;
42096;SDS011;27754;45.414;11.084;2023-12-07T01:38:58;31.80;;;19.35;;
42096;SDS011;27754;45.414;11.084;2023-12-07T01:41:25;28.88;;;18.02;;
42096;SDS011;27754;45.414;11.084;2023-12-07T01:43:52;30.80;;;18.88;;
42096;SDS011;27754;45.414;11.084;2023-12-07T01:46:19;31.45;;;18.70;;
42096;SDS011;27754;45.414;11.084;2023-12-07T01:48:46;29.27;;;18.17;;
42096;SDS011;27754;45.414;11.084;2023-12-07T01:51:16;32.45;;;17.70;;
42096;SDS011;27754;45.414;11.084;2023-12-07T01:53:46;28.80;;;15.52;;
42096;SDS011;27754;45.414;11.084;2023-12-07T01:56:14;27.60;;;14.85;;
42096;SDS011;27754;45.414;11.084;2023-12-07T01:58:42;28.30;;;15.30;;
42096;SDS011;27754;45.414;11.084;2023-12-07T02:01:10;23.90;;;13.45;;
42096;SDS011;27754;45.414;11.084;2023-12-07T02:03:39;17.77;;;11.95;;
42096;SDS011;27754;45.414;11.084;2023-12-07T02:06:07;16.80;;;10.57;;
42096;SDS011;27754;45.414;11.084;2023-12-07T02:08:37;16.00;;;10.07;;
42096;SDS011;27754;45.414;11.084;2023-12-07T02:11:08;16.27;;;10.35;;
42096;SDS011;27754;45.414;11.084;2023-12-07T02:13:39;13.82;;;9.93;;
42096;SDS011;27754;45.414;11.084;2023-12-07T02:16:09;18.45;;;9.93;;
42096;SDS011;27754;45.414;11.084;2023-12-07T02:18:43;14.27;;;8.82;;
42096;SDS011;27754;45.414;11.084;2023-12-07T02:21:38;13.05;;;8.80;;
42096;SDS011;27754;45.414;11.084;2023-12-07T02:24:06;16.73;;;9.68;;
42096;SDS011;27754;45.414;11.084;2023-12-07T02:26:37;17.08;;;10.13;;
42096;SDS011;27754;45.414;11.084;2023-12-07T02:29:05;16.25;;;9.63;;
42096;SDS011;27754;45.414;11.084;2023-12-07T02:31:32;17.65;;;10.13;;
42096;SDS011;27754;45.414;11.084;2023-12-07T02:34:00;18.98;;;10.80;;
42096;SDS011;27754;45.414;11.084;2023-12-07T02:36:27;15.88;;;9.82;;
42096;SDS011;27754;45.414;11.084;2023-12-07T02:38:56;16.80;;;10.35;;
42096;SDS011;27754;45.414;11.084;2023-12-07T02:41:25;17.73;;;11.75;;
42096;SDS011;27754;45.414;11.084;2023-12-07T02:43:53;20.50;;;13.18;;
42096;SDS011;27754;45.414;11.084;2023-12-07T02:46:20;23.10;;;13.52;;
42096;SDS011;27754;45.414;11.084;2023-12-07T02:48:47;19.35;;;12.60;;
42096;SDS011;27754;45.414;11.084;2023-12-07T02:51:15;21.08;;;13.02;;
42096;SDS011;27754;45.414;11.084;2023-12-07T02:53:42;24.30;;;14.40;;
42096;SDS011;27754;45.414;11.084;2023-12-07T02:56:09;23.75;;;13.48;;
42096;SDS011;27754;45.414;11.084;2023-12-07T02:58:36;23.75;;;14.50;;
42096;SDS011;27754;45.414;11.084;2023-12-07T03:01:03;19.55;;;14.20;;
42096;SDS011;27754;45.414;11.084;2023-12-07T03:03:31;24.73;;;15.38;;
42096;SDS011;27754;45.414;11.084;2023-12-07T03:05:58;25.25;;;15.73;;
42096;SDS011;27754;45.414;11.084;2023-12-07T03:08:25;24.33;;;15.05;;
42096;SDS011;27754;45.414;11.084;2023-12-07T03:10:52;27.58;;;16.02;;
42096;SDS011;27754;45.414;11.084;2023-12-07T03:13:18;23.42;;;14.88;;
42096;SDS011;27754;45.414;11.084;2023-12-07T03:15:45;26.48;;;15.32;;
42096;SDS011;27754;45.414;11.084;2023-12-07T03:18:12;22.52;;;13.52;;
42096;SDS011;27754;45.414;11.084;2023-12-07T03:20:40;21.15;;;13.43;;
42096;SDS011;27754;45.414;11.084;2023-12-07T03:23:07;21.05;;;14.05;;
42096;SDS011;27754;45.414;11.084;2023-12-07T03:25:34;21.98;;;13.82;;
42096;SDS011;27754;45.414;11.084;2023-12-07T03:28:02;23.17;;;14.98;;
42096;SDS011;27754;45.414;11.084;2023-12-07T03:30:29;22.77;;;14.02;;
42096;SDS011;27754;45.414;11.084;2023-12-07T03:32:56;23.98;;;14.40;;
42096;SDS011;27754;45.414;11.084;2023-12-07T03:35:23;22.95;;;13.82;;
42096;SDS011;27754;45.414;11.084;2023-12-07T03:37:50;29.77;;;14.35;;
42096;SDS011;27754;45.414;11.084;2023-12-07T03:40:17;19.95;;;13.32;;
42096;SDS011;27754;45.414;11.084;2023-12-07T03:42:44;22.55;;;14.05;;
42096;SDS011;27754;45.414;11.084;2023-12-07T03:45:22;26.70;;;14.68;;
42096;SDS011;27754;45.414;11.084;2023-12-07T03:47:49;24.13;;;14.95;;
42096;SDS011;27754;45.414;11.084;2023-12-07T03:50:16;25.02;;;16.55;;
42096;SDS011;27754;45.414;11.084;2023-12-07T03:52:43;25.17;;;15.48;;
42096;SDS011;27754;45.414;11.084;2023-12-07T03:55:10;28.10;;;15.02;;
42096;SDS011;27754;45.414;11.084;2023-12-07T03:57:38;21.38;;;15.05;;
42096;SDS011;27754;45.414;11.084;2023-12-07T04:00:05;26.17;;;14.57;;
42096;SDS011;27754;45.414;11.084;2023-12-07T04:02:36;30.70;;;16.95;;
42096;SDS011;27754;45.414;11.084;2023-12-07T04:05:03;27.38;;;18.00;;
42096;SDS011;27754;45.414;11.084;2023-12-07T04:07:30;35.28;;;22.35;;
42096;SDS011;27754;45.414;11.084;2023-12-07T04:09:57;35.80;;;23.10;;
42096;SDS011;27754;45.414;11.084;2023-12-07T04:12:24;48.45;;;25.73;;
42096;SDS011;27754;45.414;11.084;2023-12-07T04:14:52;59.47;;;28.13;;
42096;SDS011;27754;45.414;11.084;2023-12-07T04:17:19;41.17;;;22.50;;
42096;SDS011;27754;45.414;11.084;2023-12-07T04:19:46;43.38;;;24.55;;
42096;SDS011;27754;45.414;11.084;2023-12-07T04:22:13;38.85;;;22.80;;
42096;SDS011;27754;45.414;11.084;2023-12-07T04:24:40;54.15;;;28.63;;
42096;SDS011;27754;45.414;11.084;2023-12-07T04:27:07;52.20;;;27.80;;
42096;SDS011;27754;45.414;11.084;2023-12-07T04:29:34;39.03;;;24.23;;
42096;SDS011;27754;45.414;11.084;2023-12-07T04:32:02;32.40;;;21.92;;
42096;SDS011;27754;45.414;11.084;2023-12-07T04:34:29;35.78;;;22.70;;
42096;SDS011;27754;45.414;11.084;2023-12-07T04:36:56;36.63;;;21.67;;
42096;SDS011;27754;45.414;11.084;2023-12-07T04:39:23;35.58;;;21.30;;
42096;SDS011;27754;45.414;11.084;2023-12-07T04:41:50;35.15;;;22.50;;
42096;SDS011;27754;45.414;11.084;2023-12-07T04:44:17;40.72;;;25.05;;
42096;SDS011;27754;45.414;11.084;2023-12-07T04:46:45;36.65;;;24.17;;
42096;SDS011;27754;45.414;11.084;2023-12-07T04:49:13;37.78;;;24.83;;
42096;SDS011;27754;45.414;11.084;2023-12-07T04:51:40;42.13;;;24.85;;
42096;SDS011;27754;45.414;11.084;2023-12-07T04:54:08;44.75;;;25.05;;
42096;SDS011;27754;45.414;11.084;2023-12-07T04:56:45;39.97;;;24.35;;
42096;SDS011;27754;45.414;11.084;2023-12-07T04:59:12;36.33;;;22.77;;
42096;SDS011;27754;45.414;11.084;2023-12-07T05:01:39;35.38;;;23.52;;
42096;SDS011;27754;45.414;11.084;2023-12-07T05:04:06;34.97;;;21.92;;
42096;SDS011;27754;45.414;11.084;2023-12-07T05:06:33;33.22;;;20.33;;
42096;SDS011;27754;45.414;11.084;2023-12-07T05:09:01;32.90;;;20.33;;
42096;SDS011;27754;45.414;11.084;2023-12-07T05:11:29;35.60;;;22.00;;
42096;SDS011;27754;45.414;11.084;2023-12-07T05:13:56;35.17;;;20.58;;
42096;SDS011;27754;45.414;11.084;2023-12-07T05:16:24;33.58;;;20.42;;
42096;SDS011;27754;45.414;11.084;2023-12-07T05:18:51;29.08;;;19.50;;
42096;SDS011;27754;45.414;11.084;2023-12-07T05:21:18;33.67;;;20.52;;
42096;SDS011;27754;45.414;11.084;2023-12-07T05:23:45;30.30;;;19.17;;
42096;SDS011;27754;45.414;11.084;2023-12-07T05:26:12;28.98;;;18.83;;
42096;SDS011;27754;45.414;11.084;2023-12-07T05:28:39;29.15;;;18.20;;
42096;SDS011;27754;45.414;11.084;2023-12-07T05:31:06;27.52;;;17.50;;
42096;SDS011;27754;45.414;11.084;2023-12-07T05:33:33;28.52;;;17.65;;
42096;SDS011;27754;45.414;11.084;2023-12-07T05:36:00;24.83;;;16.92;;
42096;SDS011;27754;45.414;11.084;2023-12-07T05:38:29;28.50;;;16.95;;
42096;SDS011;27754;45.414;11.084;2023-12-07T05:40:56;28.45;;;17.67;;
42096;SDS011;27754;45.414;11.084;2023-12-07T05:43:23;21.80;;;15.32;;
42096;SDS011;27754;45.414;11.084;2023-12-07T05:45:50;24.00;;;15.50;;
42096;SDS011;27754;45.414;11.084;2023-12-07T05:48:17;28.55;;;17.40;;
42096;SDS011;27754;45.414;11.084;2023-12-07T05:50:44;23.08;;;15.82;;
42096;SDS011;27754;45.414;11.084;2023-12-07T05:53:11;28.10;;;18.05;;
42096;SDS011;27754;45.414;11.084;2023-12-07T05:55:38;29.27;;;19.17;;
42096;SDS011;27754;45.414;11.084;2023-12-07T05:58:06;31.63;;;20.23;;
42096;SDS011;27754;45.414;11.084;2023-12-07T06:00:33;27.02;;;16.00;;
42096;SDS011;27754;45.414;11.084;2023-12-07T06:03:00;32.28;;;17.13;;
42096;SDS011;27754;45.414;11.084;2023-12-07T06:05:27;60.13;;;31.65;;
42096;SDS011;27754;45.414;11.084;2023-12-07T06:07:54;44.65;;;24.70;;
42096;SDS011;27754;45.414;11.084;2023-12-07T06:10:21;32.75;;;20.23;;
42096;SDS011;27754;45.414;11.084;2023-12-07T06:12:49;34.03;;;18.17;;
42096;SDS011;27754;45.414;11.084;2023-12-07T06:15:16;27.67;;;17.30;;
42096;SDS011;27754;45.414;11.084;2023-12-07T06:17:43;31.98;;;18.90;;
42096;SDS011;27754;45.414;11.084;2023-12-07T06:20:10;33.47;;;19.50;;
42096;SDS011;27754;45.414;11.084;2023-12-07T06:22:37;31.30;;;20.25;;
42096;SDS011;27754;45.414;11.084;2023-12-07T06:25:04;43.33;;;23.63;;
42096;SDS011;27754;45.414;11.084;2023-12-07T06:27:32;39.92;;;22.52;;
42096;SDS011;27754;45.414;11.084;2023-12-07T06:30:00;36.38;;;21.13;;
42096;SDS011;27754;45.414;11.084;2023-12-07T06:32:27;36.47;;;21.92;;
42096;SDS011;27754;45.414;11.084;2023-12-07T06:34:54;46.83;;;25.30;;
42096;SDS011;27754;45.414;11.084;2023-12-07T06:37:21;37.63;;;22.52;;
42096;SDS011;27754;45.414;11.084;2023-12-07T06:39:48;43.80;;;24.25;;
42096;SDS011;27754;45.414;11.084;2023-12-07T06:42:15;42.70;;;23.90;;
42096;SDS011;27754;45.414;11.084;2023-12-07T06:44:43;43.45;;;22.40;;
42096;SDS011;27754;45.414;11.084;2023-12-07T06:47:12;35.00;;;20.52;;
42096;SDS011;27754;45.414;11.084;2023-12-07T06:49:39;26.33;;;15.60;;
42096;SDS011;27754;45.414;11.084;2023-12-07T06:52:17;25.95;;;16.33;;
42096;SDS011;27754;45.414;11.084;2023-12-07T06:54:45;25.48;;;17.20;;
42096;SDS011;27754;45.414;11.084;2023-12-07T06:57:12;26.17;;;16.17;;
42096;SDS011;27754;45.414;11.084;2023-12-07T06:59:39;29.15;;;16.05;;
42096;SDS011;27754;45.414;11.084;2023-12-07T07:02:07;28.75;;;16.23;;
42096;SDS011;27754;45.414;11.084;2023-12-07T07:04:34;29.55;;;17.40;;
42096;SDS011;27754;45.414;11.084;2023-12-07T07:07:01;26.48;;;15.95;;
42096;SDS011;27754;45.414;11.084;2023-12-07T07:09:28;30.10;;;17.23;;
42096;SDS011;27754;45.414;11.084;2023-12-07T07:11:55;25.10;;;16.15;;
42096;SDS011;27754;45.414;11.084;2023-12-07T07:14:22;39.75;;;18.77;;
42096;SDS011;27754;45.414;11.084;2023-12-07T07:16:49;29.08;;;16.88;;
42096;SDS011;27754;45.414;11.084;2023-12-07T07:19:18;30.67;;;17.60;;
42096;SDS011;27754;45.414;11.084;2023-12-07T07:21:45;27.23;;;16.25;;
42096;SDS011;27754;45.414;11.084;2023-12-07T07:24:12;33.38;;;18.60;;
42096;SDS011;27754;45.414;11.084;2023-12-07T07:26:39;30.27;;;16.13;;
42096;SDS011;27754;45.414;11.084;2023-12-07T07:29:06;30.17;;;17.33;;
42096;SDS011;27754;45.414;11.084;2023-12-07T07:31:34;30.67;;;17.05;;
42096;SDS011;27754;45.414;11.084;2023-12-07T07:34:02;28.50;;;16.58;;
42096;SDS011;27754;45.414;11.084;2023-12-07T07:36:30;32.00;;;16.67;;
42096;SDS011;27754;45.414;11.084;2023-12-07T07:38:58;27.90;;;18.35;;
42096;SDS011;27754;45.414;11.084;2023-12-07T07:41:25;32.17;;;17.08;;
42096;SDS011;27754;45.414;11.084;2023-12-07T07:43:52;30.52;;;18.00;;
42096;SDS011;27754;45.414;11.084;2023-12-07T07:46:19;26.13;;;16.67;;
42096;SDS011;27754;45.414;11.084;2023-12-07T07:48:46;25.92;;;15.40;;
42096;SDS011;27754;45.414;11.084;2023-12-07T07:51:13;22.60;;;16.98;;
42096;SDS011;27754;45.414;11.084;2023-12-07T07:53:41;28.00;;;20.60;;
42096;SDS011;27754;45.414;11.084;2023-12-07T07:56:07;32.60;;;21.38;;
42096;SDS011;27754;45.414;11.084;2023-12-07T07:58:35;27.27;;;17.83;;
42096;SDS011;27754;45.414;11.084;2023-12-07T08:01:02;26.10;;;17.33;;
42096;SDS011;27754;45.414;11.084;2023-12-07T08:03:29;28.90;;;17.58;;
42096;SDS011;27754;45.414;11.084;2023-12-07T08:05:57;30.35;;;19.98;;
42096;SDS011;27754;45.414;11.084;2023-12-07T08:08:24;27.02;;;17.70;;
42096;SDS011;27754;45.414;11.084;2023-12-07T08:10:52;27.45;;;17.90;;
42096;SDS011;27754;45.414;11.084;2023-12-07T08:13:22;23.92;;;17.35;;
42096;SDS011;27754;45.414;11.084;2023-12-07T08:15:49;22.45;;;15.98;;
42096;SDS011;27754;45.414;11.084;2023-12-07T08:18:19;23.33;;;15.23;;
42096;SDS011;27754;45.414;11.084;2023-12-07T08:20:46;25.27;;;16.98;;
42096;SDS011;27754;45.414;11.084;2023-12-07T08:23:13;27.88;;;17.27;;
42096;SDS011;27754;45.414;11.084;2023-12-07T08:25:40;32.60;;;22.40;;
42096;SDS011;27754;45.414;11.084;2023-12-07T08:28:07;35.40;;;22.95;;
42096;SDS011;27754;45.414;11.084;2023-12-07T08:30:36;29.60;;;21.15;;
42096;SDS011;27754;45.414;11.084;2023-12-07T08:33:03;30.48;;;18.67;;
42096;SDS011;27754;45.414;11.084;2023-12-07T08:35:30;28.80;;;18.08;;
42096;SDS011;27754;45.414;11.084;2023-12-07T08:37:57;27.20;;;18.02;;
42096;SDS011;27754;45.414;11.084;2023-12-07T08:40:24;25.42;;;17.50;;
42096;SDS011;27754;45.414;11.084;2023-12-07T08:42:51;23.67;;;16.75;;
42096;SDS011;27754;45.414;11.084;2023-12-07T08:45:18;28.70;;;17.65;;
42096;SDS011;27754;45.414;11.084;2023-12-07T08:47:45;25.98;;;17.60;;
42096;SDS011;27754;45.414;11.084;2023-12-07T08:50:12;26.00;;;18.05;;
42096;SDS011;27754;45.414;11.084;2023-12-07T08:52:39;33.72;;;18.77;;
42096;SDS011;27754;45.414;11.084;2023-12-07T08:55:15;30.98;;;19.58;;
42096;SDS011;27754;45.414;11.084;2023-12-07T08:57:43;29.75;;;18.83;;
42096;SDS011;27754;45.414;11.084;2023-12-07T09:00:10;31.70;;;19.40;;
42096;SDS011;27754;45.414;11.084;2023-12-07T09:02:39;26.80;;;18.92;;
42096;SDS011;27754;45.414;11.084;2023-12-07T09:05:13;29.17;;;19.80;;
42096;SDS011;27754;45.414;11.084;2023-12-07T09:07:41;27.77;;;19.42;;
42096;SDS011;27754;45.414;11.084;2023-12-07T09:10:08;28.88;;;19.00;;
42096;SDS011;27754;45.414;11.084;2023-12-07T09:12:36;30.48;;;19.67;;
42096;SDS011;27754;45.414;11.084;2023-12-07T09:15:05;31.77;;;21.08;;
42096;SDS011;27754;45.414;11.084;2023-12-07T09:17:38;30.33;;;21.20;;
42096;SDS011;27754;45.414;11.084;2023-12-07T09:20:09;36.40;;;21.67;;
42096;SDS011;27754;45.414;11.084;2023-12-07T09:22:46;28.63;;;21.10;;
42096;SDS011;27754;45.414;11.084;2023-12-07T09:25:15;38.20;;;23.52;;
42096;SDS011;27754;45.414;11.084;2023-12-07T09:27:44;32.03;;;22.13;;
42096;SDS011;27754;45.414;11.084;2023-12-07T09:30:11;34.45;;;21.20;;
42096;SDS011;27754;45.414;11.084;2023-12-07T09:32:39;33.28;;;21.75;;
42096;SDS011;27754;45.414;11.084;2023-12-07T09:35:09;36.85;;;22.13;;
42096;SDS011;27754;45.414;11.084;2023-12-07T09:37:47;29.20;;;20.90;;
42096;SDS011;27754;45.414;11.084;2023-12-07T09:40:19;35.53;;;23.08;;
42096;SDS011;27754;45.414;11.084;2023-12-07T09:42:48;31.75;;;21.85;;
42096;SDS011;27754;45.414;11.084;2023-12-07T09:45:16;38.00;;;24.27;;
42096;SDS011;27754;45.414;11.084;2023-12-07T09:47:49;39.90;;;24.05;;
42096;SDS011;27754;45.414;11.084;2023-12-07T09:50:18;37.83;;;24.30;;
42096;SDS011;27754;45.414;11.084;2023-12-07T09:52:52;44.50;;;25.98;;
42096;SDS011;27754;45.414;11.084;2023-12-07T09:55:33;44.30;;;25.33;;
42096;SDS011;27754;45.414;11.084;2023-12-07T09:58:04;41.22;;;27.02;;
42096;SDS011;27754;45.414;11.084;2023-12-07T10:00:35;46.55;;;27.63;;
42096;SDS011;27754;45.414;11.084;2023-12-07T10:03:05;40.20;;;28.13;;
42096;SDS011;27754;45.414;11.084;2023-12-07T10:05:55;41.83;;;27.67;;
42096;SDS011;27754;45.414;11.084;2023-12-07T10:08:27;37.47;;;27.02;;
42096;SDS011;27754;45.414;11.084;2023-12-07T10:11:02;45.92;;;27.88;;
42096;SDS011;27754;45.414;11.084;2023-12-07T10:13:32;47.25;;;32.17;;
42096;SDS011;27754;45.414;11.084;2023-12-07T10:16:09;47.97;;;33.05;;
42096;SDS011;27754;45.414;11.084;2023-12-07T10:18:38;49.70;;;31.90;;
42096;SDS011;27754;45.414;11.084;2023-12-07T10:21:10;47.90;;;32.25;;
42096;SDS011;27754;45.414;11.084;2023-12-07T10:23:37;51.92;;;34.65;;
42096;SDS011;27754;45.414;11.084;2023-12-07T10:26:06;54.03;;;36.15;;
42096;SDS011;27754;45.414;11.084;2023-12-07T10:28:34;57.10;;;34.40;;
42096;SDS011;27754;45.414;11.084;2023-12-07T10:31:06;45.88;;;33.40;;
42096;SDS011;27754;45.414;11.084;2023-12-07T10:33:37;46.83;;;32.60;;
42096;SDS011;27754;45.414;11.084;2023-12-07T10:36:07;50.00;;;34.28;;
42096;SDS011;27754;45.414;11.084;2023-12-07T10:38:37;47.25;;;33.80;;
42096;SDS011;27754;45.414;11.084;2023-12-07T10:41:09;47.45;;;31.98;;
42096;SDS011;27754;45.414;11.084;2023-12-07T10:43:42;46.78;;;31.95;;
42096;SDS011;27754;45.414;11.084;2023-12-07T10:46:13;50.08;;;33.38;;
42096;SDS011;27754;45.414;11.084;2023-12-07T10:48:48;45.15;;;31.17;;
42096;SDS011;27754;45.414;11.084;2023-12-07T10:51:26;51.72;;;34.15;;
42096;SDS011;27754;45.414;11.084;2023-12-07T10:53:56;47.35;;;33.40;;
42096;SDS011;27754;45.414;11.084;2023-12-07T10:56:29;55.65;;;35.40;;
42096;SDS011;27754;45.414;11.084;2023-12-07T10:59:32;54.20;;;35.47;;
42096;SDS011;27754;45.414;11.084;2023-12-07T11:02:02;52.20;;;34.67;;
42096;SDS011;27754;45.414;11.084;2023-12-07T11:04:34;51.10;;;35.33;;
42096;SDS011;27754;45.414;11.084;2023-12-07T11:07:07;54.05;;;34.35;;
42096;SDS011;27754;45.414;11.084;2023-12-07T11:09:43;50.67;;;34.75;;
42096;SDS011;27754;45.414;11.084;2023-12-07T11:12:19;51.85;;;33.90;;
42096;SDS011;27754;45.414;11.084;2023-12-07T11:15:07;42.45;;;32.15;;
42096;SDS011;27754;45.414;11.084;2023-12-07T11:17:51;49.58;;;33.35;;
42096;SDS011;27754;45.414;11.084;2023-12-07T11:20:31;51.28;;;33.17;;
42096;SDS011;27754;45.414;11.084;2023-12-07T11:23:10;43.80;;;30.83;;
42096;SDS011;27754;45.414;11.084;2023-12-07T11:25:42;41.38;;;30.20;;
42096;SDS011;27754;45.414;11.084;2023-12-07T11:28:10;40.75;;;28.45;;
42096;SDS011;27754;45.414;11.084;2023-12-07T11:30:42;42.33;;;30.45;;
42096;SDS011;27754;45.414;11.084;2023-12-07T11:33:15;42.05;;;30.20;;
42096;SDS011;27754;45.414;11.084;2023-12-07T11:38:33;39.33;;;26.77;;
42096;SDS011;27754;45.414;11.084;2023-12-07T11:41:02;41.60;;;26.42;;
42096;SDS011;27754;45.414;11.084;2023-12-07T11:46:01;35.10;;;24.80;;
42096;SDS011;27754;45.414;11.084;2023-12-07T11:48:30;34.38;;;24.25;;
42096;SDS011;27754;45.414;11.084;2023-12-07T11:51:03;28.27;;;21.48;;
42096;SDS011;27754;45.414;11.084;2023-12-07T11:53:32;30.08;;;22.67;;
42096;SDS011;27754;45.414;11.084;2023-12-07T11:56:02;32.00;;;22.85;;
42096;SDS011;27754;45.414;11.084;2023-12-07T11:58:36;30.98;;;21.02;;
42096;SDS011;27754;45.414;11.084;2023-12-07T12:01:08;31.67;;;22.42;;
42096;SDS011;27754;45.414;11.084;2023-12-07T12:03:39;35.53;;;21.65;;
42096;SDS011;27754;45.414;11.084;2023-12-07T12:06:08;38.63;;;23.65;;
42096;SDS011;27754;45.414;11.084;2023-12-07T12:08:40;28.98;;;20.38;;
42096;SDS011;27754;45.414;11.084;2023-12-07T12:11:11;33.63;;;22.70;;
42096;SDS011;27754;45.414;11.084;2023-12-07T12:13:39;31.08;;;22.88;;
42096;SDS011;27754;45.414;11.084;2023-12-07T12:16:10;30.95;;;21.83;;
42096;SDS011;27754;45.414;11.084;2023-12-07T12:18:39;32.20;;;23.23;;
42096;SDS011;27754;45.414;11.084;2023-12-07T12:21:07;30.05;;;22.98;;
42096;SDS011;27754;45.414;11.084;2023-12-07T12:23:35;30.40;;;20.23;;
42096;SDS011;27754;45.414;11.084;2023-12-07T12:26:07;24.92;;;19.00;;
42096;SDS011;27754;45.414;11.084;2023-12-07T12:28:37;25.52;;;17.88;;
42096;SDS011;27754;45.414;11.084;2023-12-07T12:31:13;28.13;;;18.50;;
42096;SDS011;27754;45.414;11.084;2023-12-07T12:33:43;30.52;;;21.13;;
42096;SDS011;27754;45.414;11.084;2023-12-07T12:36:13;28.83;;;19.90;;
42096;SDS011;27754;45.414;11.084;2023-12-07T12:38:46;25.95;;;19.13;;
42096;SDS011;27754;45.414;11.084;2023-12-07T12:41:20;22.83;;;17.40;;
42096;SDS011;27754;45.414;11.084;2023-12-07T12:43:49;25.98;;;17.05;;
42096;SDS011;27754;45.414;11.084;2023-12-07T12:46:23;23.60;;;16.83;;
42096;SDS011;27754;45.414;11.084;2023-12-07T12:48:54;23.08;;;15.90;;
42096;SDS011;27754;45.414;11.084;2023-12-07T12:51:23;22.98;;;14.75;;
42096;SDS011;27754;45.414;11.084;2023-12-07T12:53:53;20.42;;;14.95;;
42096;SDS011;27754;45.414;11.084;2023-12-07T12:56:22;23.08;;;15.13;;
42096;SDS011;27754;45.414;11.084;2023-12-07T12:58:54;24.58;;;15.18;;
42096;SDS011;27754;45.414;11.084;2023-12-07T13:01:31;20.83;;;15.23;;
42096;SDS011;27754;45.414;11.084;2023-12-07T13:04:00;23.40;;;15.60;;
42096;SDS011;27754;45.414;11.084;2023-12-07T13:06:27;21.17;;;14.95;;
42096;SDS011;27754;45.414;11.084;2023-12-07T13:08:58;21.30;;;15.25;;
42096;SDS011;27754;45.414;11.084;2023-12-07T13:11:27;23.73;;;16.73;;
42096;SDS011;27754;45.414;11.084;2023-12-07T13:13:57;21.80;;;16.58;;
42096;SDS011;27754;45.414;11.084;2023-12-07T13:16:27;23.65;;;16.88;;
42096;SDS011;27754;45.414;11.084;2023-12-07T13:18:57;21.88;;;15.63;;
42096;SDS011;27754;45.414;11.084;2023-12-07T13:21:25;24.67;;;16.63;;
42096;SDS011;27754;45.414;11.084;2023-12-07T13:23:52;24.85;;;19.23;;
42096;SDS011;27754;45.414;11.084;2023-12-07T13:26:21;23.40;;;17.42;;
42096;SDS011;27754;45.414;11.084;2023-12-07T13:28:50;27.75;;;18.60;;
42096;SDS011;27754;45.414;11.084;2023-12-07T13:31:17;23.38;;;18.30;;
42096;SDS011;27754;45.414;11.084;2023-12-07T13:33:44;27.02;;;20.23;;
42096;SDS011;27754;45.414;11.084;2023-12-07T13:36:22;29.75;;;20.52;;
42096;SDS011;27754;45.414;11.084;2023-12-07T13:38:55;29.73;;;20.35;;
42096;SDS011;27754;45.414;11.084;2023-12-07T13:41:25;32.03;;;21.55;;
42096;SDS011;27754;45.414;11.084;2023-12-07T13:43:55;28.92;;;21.65;;
42096;SDS011;27754;45.414;11.084;2023-12-07T13:46:23;29.58;;;22.02;;
42096;SDS011;27754;45.414;11.084;2023-12-07T13:48:52;32.38;;;22.95;;
42096;SDS011;27754;45.414;11.084;2023-12-07T13:51:21;40.13;;;24.65;;
42096;SDS011;27754;45.414;11.084;2023-12-07T13:53:49;34.13;;;25.05;;
42096;SDS011;27754;45.414;11.084;2023-12-07T13:56:27;37.67;;;23.77;;
42096;SDS011;27754;45.414;11.084;2023-12-07T13:58:54;34.63;;;25.13;;
42096;SDS011;27754;45.414;11.084;2023-12-07T14:01:25;37.25;;;24.25;;
42096;SDS011;27754;45.414;11.084;2023-12-07T14:03:53;35.72;;;24.65;;
42096;SDS011;27754;45.414;11.084;2023-12-07T14:06:22;37.22;;;25.08;;
42096;SDS011;27754;45.414;11.084;2023-12-07T14:08:54;38.75;;;25.90;;
42096;SDS011;27754;45.414;11.084;2023-12-07T14:11:22;40.10;;;24.60;;
42096;SDS011;27754;45.414;11.084;2023-12-07T14:13:52;38.42;;;25.45;;
42096;SDS011;27754;45.414;11.084;2023-12-07T14:16:21;40.95;;;26.70;;
42096;SDS011;27754;45.414;11.084;2023-12-07T14:19:08;39.10;;;27.58;;
42096;SDS011;27754;45.414;11.084;2023-12-07T14:21:41;41.25;;;28.60;;
42096;SDS011;27754;45.414;11.084;2023-12-07T14:24:21;36.83;;;26.77;;